sensor_id;sensor_type;location;lat;lon;timestamp;temperature;humidity
76211;DHT22;65003;49.518;11.280;2023-03-01T00:01:54;0.30;73.60
76211;DHT22;65003;49.518;11.280;2023-03-01T00:04:21;0.20;73.80
76211;DHT22;65003;49.518;11.280;2023-03-01T00:06:47;0.20;74.00
76211;DHT22;65003;49.518;11.280;2023-03-01T00:09:14;0.10;74.40
76211;DHT22;65003;49.518;11.280;2023-03-01T00:11:41;0.00;74.70
76211;DHT22;65003;49.518;11.280;2023-03-01T00:14:07;0.00;74.60
76211;DHT22;65003;49.518;11.280;2023-03-01T00:16:36;0.00;74.80
76211;DHT22;65003;49.518;11.280;2023-03-01T00:19:02;-0.10;75.00
76211;DHT22;65003;49.518;11.280;2023-03-01T00:21:28;-0.10;75.10
76211;DHT22;65003;49.518;11.280;2023-03-01T00:23:55;-0.10;75.10
76211;DHT22;65003;49.518;11.280;2023-03-01T00:26:22;0.00;75.00
76211;DHT22;65003;49.518;11.280;2023-03-01T00:28:48;-0.10;74.90
76211;DHT22;65003;49.518;11.280;2023-03-01T00:31:16;-0.10;75.10
76211;DHT22;65003;49.518;11.280;2023-03-01T00:33:41;-0.10;75.00
76211;DHT22;65003;49.518;11.280;2023-03-01T00:36:08;-0.10;74.90
76211;DHT22;65003;49.518;11.280;2023-03-01T00:38:35;-0.10;74.90
76211;DHT22;65003;49.518;11.280;2023-03-01T00:41:03;-0.10;75.00
76211;DHT22;65003;49.518;11.280;2023-03-01T00:43:29;-0.10;75.70
76211;DHT22;65003;49.518;11.280;2023-03-01T00:45:55;-0.10;74.90
76211;DHT22;65003;49.518;11.280;2023-03-01T00:48:22;-0.10;75.00
76211;DHT22;65003;49.518;11.280;2023-03-01T00:50:49;-0.10;75.00
76211;DHT22;65003;49.518;11.280;2023-03-01T00:53:15;-0.10;74.90
76211;DHT22;65003;49.518;11.280;2023-03-01T00:55:42;-0.10;74.70
76211;DHT22;65003;49.518;11.280;2023-03-01T00:58:08;-0.10;74.60
76211;DHT22;65003;49.518;11.280;2023-03-01T01:00:35;-0.10;74.50
76211;DHT22;65003;49.518;11.280;2023-03-01T01:03:02;-0.10;74.70
76211;DHT22;65003;49.518;11.280;2023-03-01T01:05:28;-0.10;74.90
76211;DHT22;65003;49.518;11.280;2023-03-01T01:07:55;-0.20;74.90
76211;DHT22;65003;49.518;11.280;2023-03-01T01:10:21;-0.20;74.90
76211;DHT22;65003;49.518;11.280;2023-03-01T01:12:48;-0.20;74.90
76211;DHT22;65003;49.518;11.280;2023-03-01T01:15:15;-0.20;74.90
76211;DHT22;65003;49.518;11.280;2023-03-01T01:17:41;-0.20;75.00
76211;DHT22;65003;49.518;11.280;2023-03-01T01:20:08;-0.20;75.00
76211;DHT22;65003;49.518;11.280;2023-03-01T01:22:35;-0.20;75.00
76211;DHT22;65003;49.518;11.280;2023-03-01T01:25:02;-0.20;74.90
76211;DHT22;65003;49.518;11.280;2023-03-01T01:27:29;0.90;75.50
76211;DHT22;65003;49.518;11.280;2023-03-01T01:29:56;-0.20;75.10
76211;DHT22;65003;49.518;11.280;2023-03-01T01:32:23;-0.20;75.10
76211;DHT22;65003;49.518;11.280;2023-03-01T01:34:49;-0.30;75.30
76211;DHT22;65003;49.518;11.280;2023-03-01T01:37:16;-0.30;75.40
76211;DHT22;65003;49.518;11.280;2023-03-01T01:39:42;-0.20;75.20
76211;DHT22;65003;49.518;11.280;2023-03-01T01:42:16;-0.20;75.00
76211;DHT22;65003;49.518;11.280;2023-03-01T01:44:46;-0.20;75.00
76211;DHT22;65003;49.518;11.280;2023-03-01T01:47:14;-0.10;75.00
76211;DHT22;65003;49.518;11.280;2023-03-01T01:49:49;-0.10;74.60
76211;DHT22;65003;49.518;11.280;2023-03-01T01:52:20;-0.10;74.70
76211;DHT22;65003;49.518;11.280;2023-03-01T01:54:51;-0.10;74.50
76211;DHT22;65003;49.518;11.280;2023-03-01T01:57:19;-0.30;74.60
76211;DHT22;65003;49.518;11.280;2023-03-01T01:59:45;-0.20;74.70
76211;DHT22;65003;49.518;11.280;2023-03-01T02:02:11;-0.20;75.00
76211;DHT22;65003;49.518;11.280;2023-03-01T02:04:37;-0.10;74.50
76211;DHT22;65003;49.518;11.280;2023-03-01T02:07:22;-0.10;74.60
76211;DHT22;65003;49.518;11.280;2023-03-01T02:09:48;-0.20;74.90
76211;DHT22;65003;49.518;11.280;2023-03-01T02:12:15;-0.20;74.80
76211;DHT22;65003;49.518;11.280;2023-03-01T02:14:41;-0.20;74.80
76211;DHT22;65003;49.518;11.280;2023-03-01T02:17:08;-0.20;74.90
76211;DHT22;65003;49.518;11.280;2023-03-01T02:20:14;-0.10;74.80
76211;DHT22;65003;49.518;11.280;2023-03-01T02:22:22;0.10;74.40
76211;DHT22;65003;49.518;11.280;2023-03-01T02:24:50;0.50;72.70
76211;DHT22;65003;49.518;11.280;2023-03-01T02:27:13;0.80;71.00
76211;DHT22;65003;49.518;11.280;2023-03-01T02:29:40;1.10;69.40
76211;DHT22;65003;49.518;11.280;2023-03-01T02:32:07;1.30;67.90
76211;DHT22;65003;49.518;11.280;2023-03-01T02:34:33;1.40;67.20
76211;DHT22;65003;49.518;11.280;2023-03-01T02:37:04;1.40;67.10
76211;DHT22;65003;49.518;11.280;2023-03-01T02:39:31;1.20;67.60
76211;DHT22;65003;49.518;11.280;2023-03-01T02:41:56;1.10;68.50
76211;DHT22;65003;49.518;11.280;2023-03-01T02:44:24;1.20;67.90
76211;DHT22;65003;49.518;11.280;2023-03-01T02:46:51;1.20;67.70
76211;DHT22;65003;49.518;11.280;2023-03-01T02:49:21;1.20;67.60
76211;DHT22;65003;49.518;11.280;2023-03-01T02:54:40;1.40;66.60
76211;DHT22;65003;49.518;11.280;2023-03-01T02:57:05;1.30;66.70
76211;DHT22;65003;49.518;11.280;2023-03-01T02:59:32;1.40;66.60
76211;DHT22;65003;49.518;11.280;2023-03-01T03:02:00;1.40;66.60
76211;DHT22;65003;49.518;11.280;2023-03-01T03:04:25;1.40;66.40
76211;DHT22;65003;49.518;11.280;2023-03-01T03:06:52;1.40;66.30
76211;DHT22;65003;49.518;11.280;2023-03-01T03:09:18;1.40;66.30
76211;DHT22;65003;49.518;11.280;2023-03-01T03:11:45;1.20;66.60
76211;DHT22;65003;49.518;11.280;2023-03-01T03:14:13;1.20;66.80
76211;DHT22;65003;49.518;11.280;2023-03-01T03:16:40;1.10;66.90
76211;DHT22;65003;49.518;11.280;2023-03-01T03:19:06;1.20;66.80
76211;DHT22;65003;49.518;11.280;2023-03-01T03:21:33;1.20;66.70
76211;DHT22;65003;49.518;11.280;2023-03-01T03:23:59;1.10;66.50
76211;DHT22;65003;49.518;11.280;2023-03-01T03:26:26;0.90;67.20
76211;DHT22;65003;49.518;11.280;2023-03-01T03:28:53;0.50;68.80
76211;DHT22;65003;49.518;11.280;2023-03-01T03:31:20;0.30;70.10
76211;DHT22;65003;49.518;11.280;2023-03-01T03:33:46;0.10;70.90
76211;DHT22;65003;49.518;11.280;2023-03-01T03:36:16;0.00;71.90
76211;DHT22;65003;49.518;11.280;2023-03-01T03:38:43;-0.10;72.50
76211;DHT22;65003;49.518;11.280;2023-03-01T03:41:09;-0.20;72.80
76211;DHT22;65003;49.518;11.280;2023-03-01T03:43:36;-0.30;73.30
76211;DHT22;65003;49.518;11.280;2023-03-01T03:46:03;-0.40;73.70
76211;DHT22;65003;49.518;11.280;2023-03-01T03:48:34;-0.50;74.20
76211;DHT22;65003;49.518;11.280;2023-03-01T03:50:59;-0.60;74.80
76211;DHT22;65003;49.518;11.280;2023-03-01T03:53:27;-0.70;75.20
76211;DHT22;65003;49.518;11.280;2023-03-01T03:55:53;-0.70;75.20
76211;DHT22;65003;49.518;11.280;2023-03-01T03:58:20;-0.70;75.50
76211;DHT22;65003;49.518;11.280;2023-03-01T04:00:46;-0.70;75.50
76211;DHT22;65003;49.518;11.280;2023-03-01T04:03:13;-0.70;75.30
76211;DHT22;65003;49.518;11.280;2023-03-01T04:05:39;-0.60;75.10
76211;DHT22;65003;49.518;11.280;2023-03-01T04:08:06;-0.50;74.70
76211;DHT22;65003;49.518;11.280;2023-03-01T04:10:36;-0.50;74.50
76211;DHT22;65003;49.518;11.280;2023-03-01T04:13:01;-0.50;74.30
76211;DHT22;65003;49.518;11.280;2023-03-01T04:15:27;-0.50;74.50
76211;DHT22;65003;49.518;11.280;2023-03-01T04:17:54;-0.60;74.90
76211;DHT22;65003;49.518;11.280;2023-03-01T04:20:23;-0.70;75.30
76211;DHT22;65003;49.518;11.280;2023-03-01T04:22:52;-0.80;75.60
76211;DHT22;65003;49.518;11.280;2023-03-01T04:25:18;-0.70;75.50
76211;DHT22;65003;49.518;11.280;2023-03-01T04:27:45;-0.70;75.30
76211;DHT22;65003;49.518;11.280;2023-03-01T04:30:11;-0.70;75.30
76211;DHT22;65003;49.518;11.280;2023-03-01T04:32:39;-0.70;75.50
76211;DHT22;65003;49.518;11.280;2023-03-01T04:35:05;-0.80;75.70
76211;DHT22;65003;49.518;11.280;2023-03-01T04:37:32;-0.80;75.80
76211;DHT22;65003;49.518;11.280;2023-03-01T04:39:59;-0.80;75.80
76211;DHT22;65003;49.518;11.280;2023-03-01T04:42:25;-0.80;75.90
76211;DHT22;65003;49.518;11.280;2023-03-01T04:44:52;-0.80;75.80
76211;DHT22;65003;49.518;11.280;2023-03-01T04:47:18;-0.70;75.50
76211;DHT22;65003;49.518;11.280;2023-03-01T04:49:46;-0.70;75.50
76211;DHT22;65003;49.518;11.280;2023-03-01T04:52:12;-0.70;75.50
76211;DHT22;65003;49.518;11.280;2023-03-01T04:54:40;-0.80;75.90
76211;DHT22;65003;49.518;11.280;2023-03-01T04:57:07;-0.80;76.00
76211;DHT22;65003;49.518;11.280;2023-03-01T04:59:34;-0.80;75.70
76211;DHT22;65003;49.518;11.280;2023-03-01T05:02:00;-0.80;76.00
76211;DHT22;65003;49.518;11.280;2023-03-01T05:04:27;-0.60;75.70
76211;DHT22;65003;49.518;11.280;2023-03-01T05:06:53;-0.60;75.20
76211;DHT22;65003;49.518;11.280;2023-03-01T05:09:20;-0.60;75.50
76211;DHT22;65003;49.518;11.280;2023-03-01T05:11:47;-0.70;75.70
76211;DHT22;65003;49.518;11.280;2023-03-01T05:14:13;-0.80;75.60
76211;DHT22;65003;49.518;11.280;2023-03-01T05:16:40;-0.80;76.40
76211;DHT22;65003;49.518;11.280;2023-03-01T05:19:06;-0.90;76.40
76211;DHT22;65003;49.518;11.280;2023-03-01T05:21:48;-0.90;76.60
76211;DHT22;65003;49.518;11.280;2023-03-01T05:24:20;-0.90;76.60
76211;DHT22;65003;49.518;11.280;2023-03-01T05:26:47;-0.90;76.60
76211;DHT22;65003;49.518;11.280;2023-03-01T05:29:13;-0.90;76.60
76211;DHT22;65003;49.518;11.280;2023-03-01T05:31:40;-0.90;76.80
76211;DHT22;65003;49.518;11.280;2023-03-01T05:34:07;-1.00;76.90
76211;DHT22;65003;49.518;11.280;2023-03-01T05:36:33;-1.00;76.70
76211;DHT22;65003;49.518;11.280;2023-03-01T05:39:00;-0.90;76.80
76211;DHT22;65003;49.518;11.280;2023-03-01T05:41:26;-0.90;77.10
76211;DHT22;65003;49.518;11.280;2023-03-01T05:43:53;-0.90;76.60
76211;DHT22;65003;49.518;11.280;2023-03-01T05:46:19;-0.90;76.60
76211;DHT22;65003;49.518;11.280;2023-03-01T05:48:46;-0.90;76.60
76211;DHT22;65003;49.518;11.280;2023-03-01T05:51:13;-0.70;79.20
76211;DHT22;65003;49.518;11.280;2023-03-01T05:53:40;-0.70;77.80
76211;DHT22;65003;49.518;11.280;2023-03-01T05:56:07;-0.70;76.60
76211;DHT22;65003;49.518;11.280;2023-03-01T05:58:34;-0.60;76.40
76211;DHT22;65003;49.518;11.280;2023-03-01T06:01:04;-0.60;76.50
76211;DHT22;65003;49.518;11.280;2023-03-01T06:03:31;-0.60;76.50
76211;DHT22;65003;49.518;11.280;2023-03-01T06:05:58;-0.40;75.50
76211;DHT22;65003;49.518;11.280;2023-03-01T06:08:25;-0.40;74.90
76211;DHT22;65003;49.518;11.280;2023-03-01T06:10:51;-0.30;74.80
76211;DHT22;65003;49.518;11.280;2023-03-01T06:13:18;-0.30;74.60
76211;DHT22;65003;49.518;11.280;2023-03-01T06:15:44;-0.20;73.90
76211;DHT22;65003;49.518;11.280;2023-03-01T06:18:11;-0.10;73.40
76211;DHT22;65003;49.518;11.280;2023-03-01T06:20:38;0.00;72.80
76211;DHT22;65003;49.518;11.280;2023-03-01T06:23:04;0.10;72.20
76211;DHT22;65003;49.518;11.280;2023-03-01T06:25:31;0.20;72.00
76211;DHT22;65003;49.518;11.280;2023-03-01T06:27:57;0.30;71.40
76211;DHT22;65003;49.518;11.280;2023-03-01T06:30:25;0.40;70.70
76211;DHT22;65003;49.518;11.280;2023-03-01T06:32:51;0.50;70.70
76211;DHT22;65003;49.518;11.280;2023-03-01T06:35:17;0.40;70.50
76211;DHT22;65003;49.518;11.280;2023-03-01T06:37:44;0.40;70.60
76211;DHT22;65003;49.518;11.280;2023-03-01T06:40:11;0.30;70.90
76211;DHT22;65003;49.518;11.280;2023-03-01T06:42:39;0.30;71.20
76211;DHT22;65003;49.518;11.280;2023-03-01T06:45:05;0.30;71.20
76211;DHT22;65003;49.518;11.280;2023-03-01T06:47:31;0.40;70.90
76211;DHT22;65003;49.518;11.280;2023-03-01T06:50:00;0.40;70.70
76211;DHT22;65003;49.518;11.280;2023-03-01T06:52:26;0.50;71.00
76211;DHT22;65003;49.518;11.280;2023-03-01T06:54:52;0.50;70.40
76211;DHT22;65003;49.518;11.280;2023-03-01T06:57:19;0.60;70.00
76211;DHT22;65003;49.518;11.280;2023-03-01T06:59:46;0.60;70.10
76211;DHT22;65003;49.518;11.280;2023-03-01T07:02:12;0.60;70.00
76211;DHT22;65003;49.518;11.280;2023-03-01T07:04:39;0.70;69.80
76211;DHT22;65003;49.518;11.280;2023-03-01T07:07:05;0.70;69.50
76211;DHT22;65003;49.518;11.280;2023-03-01T07:09:32;0.60;69.30
76211;DHT22;65003;49.518;11.280;2023-03-01T07:11:59;0.60;69.50
76211;DHT22;65003;49.518;11.280;2023-03-01T07:14:25;0.70;69.80
76211;DHT22;65003;49.518;11.280;2023-03-01T07:16:53;0.80;69.70
76211;DHT22;65003;49.518;11.280;2023-03-01T07:19:19;0.80;69.40
76211;DHT22;65003;49.518;11.280;2023-03-01T07:21:46;0.90;69.40
76211;DHT22;65003;49.518;11.280;2023-03-01T07:24:12;1.00;68.30
76211;DHT22;65003;49.518;11.280;2023-03-01T07:26:39;1.00;68.20
76211;DHT22;65003;49.518;11.280;2023-03-01T07:29:07;1.10;68.10
76211;DHT22;65003;49.518;11.280;2023-03-01T07:31:32;1.30;67.70
76211;DHT22;65003;49.518;11.280;2023-03-01T07:33:59;1.50;66.50
76211;DHT22;65003;49.518;11.280;2023-03-01T07:36:27;1.80;65.40
76211;DHT22;65003;49.518;11.280;2023-03-01T07:38:53;2.20;63.80
76211;DHT22;65003;49.518;11.280;2023-03-01T07:41:19;2.50;62.30
76211;DHT22;65003;49.518;11.280;2023-03-01T07:43:46;2.80;61.20
76211;DHT22;65003;49.518;11.280;2023-03-01T07:46:12;3.20;59.80
76211;DHT22;65003;49.518;11.280;2023-03-01T07:48:39;3.40;59.00
76211;DHT22;65003;49.518;11.280;2023-03-01T07:51:06;3.70;57.80
76211;DHT22;65003;49.518;11.280;2023-03-01T07:53:33;3.80;57.40
76211;DHT22;65003;49.518;11.280;2023-03-01T07:56:00;4.20;56.30
76211;DHT22;65003;49.518;11.280;2023-03-01T07:58:26;4.50;55.30
76211;DHT22;65003;49.518;11.280;2023-03-01T08:00:53;5.10;53.80
76211;DHT22;65003;49.518;11.280;2023-03-01T08:03:19;5.80;52.30
76211;DHT22;65003;49.518;11.280;2023-03-01T08:05:46;6.80;50.30
76211;DHT22;65003;49.518;11.280;2023-03-01T08:08:13;7.90;48.30
76211;DHT22;65003;49.518;11.280;2023-03-01T08:10:39;9.00;44.80
76211;DHT22;65003;49.518;11.280;2023-03-01T08:13:06;9.20;43.10
76211;DHT22;65003;49.518;11.280;2023-03-01T08:15:33;9.20;43.00
76211;DHT22;65003;49.518;11.280;2023-03-01T08:17:59;9.00;42.80
76211;DHT22;65003;49.518;11.280;2023-03-01T08:20:26;9.40;43.00
76211;DHT22;65003;49.518;11.280;2023-03-01T08:22:53;9.50;41.60
76211;DHT22;65003;49.518;11.280;2023-03-01T08:25:19;9.60;42.30
76211;DHT22;65003;49.518;11.280;2023-03-01T08:27:46;10.20;41.20
76211;DHT22;65003;49.518;11.280;2023-03-01T08:30:13;10.90;40.30
76211;DHT22;65003;49.518;11.280;2023-03-01T08:32:39;12.00;38.40
76211;DHT22;65003;49.518;11.280;2023-03-01T08:35:06;12.60;36.50
76211;DHT22;65003;49.518;11.280;2023-03-01T08:37:33;13.20;35.40
76211;DHT22;65003;49.518;11.280;2023-03-01T08:40:00;13.30;35.00
76211;DHT22;65003;49.518;11.280;2023-03-01T08:42:27;13.50;34.00
76211;DHT22;65003;49.518;11.280;2023-03-01T08:44:53;13.40;34.00
76211;DHT22;65003;49.518;11.280;2023-03-01T08:47:20;12.60;34.70
76211;DHT22;65003;49.518;11.280;2023-03-01T08:49:47;12.30;35.50
76211;DHT22;65003;49.518;11.280;2023-03-01T08:52:13;12.10;35.30
76211;DHT22;65003;49.518;11.280;2023-03-01T08:54:40;11.50;36.10
76211;DHT22;65003;49.518;11.280;2023-03-01T08:57:06;11.30;36.80
76211;DHT22;65003;49.518;11.280;2023-03-01T08:59:33;11.50;37.10
76211;DHT22;65003;49.518;11.280;2023-03-01T09:02:00;12.10;35.90
76211;DHT22;65003;49.518;11.280;2023-03-01T09:04:27;12.40;35.30
76211;DHT22;65003;49.518;11.280;2023-03-01T09:06:53;12.30;34.80
76211;DHT22;65003;49.518;11.280;2023-03-01T09:09:20;11.80;35.40
76211;DHT22;65003;49.518;11.280;2023-03-01T09:11:47;12.00;35.60
76211;DHT22;65003;49.518;11.280;2023-03-01T09:14:13;12.00;35.20
76211;DHT22;65003;49.518;11.280;2023-03-01T09:16:40;11.80;35.50
76211;DHT22;65003;49.518;11.280;2023-03-01T09:19:06;11.70;35.60
76211;DHT22;65003;49.518;11.280;2023-03-01T09:21:33;12.10;35.30
76211;DHT22;65003;49.518;11.280;2023-03-01T09:24:00;12.00;35.00
76211;DHT22;65003;49.518;11.280;2023-03-01T09:26:26;12.40;34.80
76211;DHT22;65003;49.518;11.280;2023-03-01T09:28:53;12.30;34.10
76211;DHT22;65003;49.518;11.280;2023-03-01T09:31:20;12.10;34.70
76211;DHT22;65003;49.518;11.280;2023-03-01T09:33:47;12.20;34.60
76211;DHT22;65003;49.518;11.280;2023-03-01T09:36:14;11.90;35.00
76211;DHT22;65003;49.518;11.280;2023-03-01T09:38:39;12.10;34.80
76211;DHT22;65003;49.518;11.280;2023-03-01T09:41:10;12.00;34.70
76211;DHT22;65003;49.518;11.280;2023-03-01T09:43:47;12.20;34.50
76211;DHT22;65003;49.518;11.280;2023-03-01T09:46:13;12.70;34.20
76211;DHT22;65003;49.518;11.280;2023-03-01T09:48:48;13.10;33.00
76211;DHT22;65003;49.518;11.280;2023-03-01T09:51:18;12.90;33.40
76211;DHT22;65003;49.518;11.280;2023-03-01T09:53:44;13.50;32.90
76211;DHT22;65003;49.518;11.280;2023-03-01T09:56:19;14.20;32.00
76211;DHT22;65003;49.518;11.280;2023-03-01T09:58:59;14.90;31.00
76211;DHT22;65003;49.518;11.280;2023-03-01T10:01:29;15.30;30.10
76211;DHT22;65003;49.518;11.280;2023-03-01T10:04:47;15.60;29.50
76211;DHT22;65003;49.518;11.280;2023-03-01T10:07:02;15.50;29.30
76211;DHT22;65003;49.518;11.280;2023-03-01T10:09:24;15.70;29.10
76211;DHT22;65003;49.518;11.280;2023-03-01T10:11:52;15.70;29.00
76211;DHT22;65003;49.518;11.280;2023-03-01T10:16:54;15.80;29.00
76211;DHT22;65003;49.518;11.280;2023-03-01T10:19:23;15.70;29.10
76211;DHT22;65003;49.518;11.280;2023-03-01T10:21:47;15.80;28.70
76211;DHT22;65003;49.518;11.280;2023-03-01T10:24:15;15.90;28.80
76211;DHT22;65003;49.518;11.280;2023-03-01T10:26:53;16.40;28.60
76211;DHT22;65003;49.518;11.280;2023-03-01T10:29:23;16.20;27.90
76211;DHT22;65003;49.518;11.280;2023-03-01T10:31:48;16.00;28.60
76211;DHT22;65003;49.518;11.280;2023-03-01T10:34:17;16.50;28.60
76211;DHT22;65003;49.518;11.280;2023-03-01T10:36:42;16.60;27.50
76211;DHT22;65003;49.518;11.280;2023-03-01T10:39:13;16.20;28.20
76211;DHT22;65003;49.518;11.280;2023-03-01T10:41:44;16.30;28.20
76211;DHT22;65003;49.518;11.280;2023-03-01T10:44:04;16.10;28.10
76211;DHT22;65003;49.518;11.280;2023-03-01T10:46:34;15.70;28.30
76211;DHT22;65003;49.518;11.280;2023-03-01T10:49:12;15.20;28.60
76211;DHT22;65003;49.518;11.280;2023-03-01T10:51:33;15.30;28.90
76211;DHT22;65003;49.518;11.280;2023-03-01T10:54:00;15.60;28.50
76211;DHT22;65003;49.518;11.280;2023-03-01T10:56:27;15.40;28.50
76211;DHT22;65003;49.518;11.280;2023-03-01T10:58:59;15.00;29.00
76211;DHT22;65003;49.518;11.280;2023-03-01T11:01:31;14.60;29.70
76211;DHT22;65003;49.518;11.280;2023-03-01T11:04:13;15.00;29.20
76211;DHT22;65003;49.518;11.280;2023-03-01T11:06:40;15.30;29.20
76211;DHT22;65003;49.518;11.280;2023-03-01T11:09:14;15.60;29.20
76211;DHT22;65003;49.518;11.280;2023-03-01T11:11:40;16.10;28.40
76211;DHT22;65003;49.518;11.280;2023-03-01T11:14:13;16.20;28.30
76211;DHT22;65003;49.518;11.280;2023-03-01T11:16:39;16.50;28.30
76211;DHT22;65003;49.518;11.280;2023-03-01T11:19:20;16.90;27.80
76211;DHT22;65003;49.518;11.280;2023-03-01T11:24:43;15.60;28.70
76211;DHT22;65003;49.518;11.280;2023-03-01T11:27:23;14.70;30.00
76211;DHT22;65003;49.518;11.280;2023-03-01T11:29:56;14.40;30.20
76211;DHT22;65003;49.518;11.280;2023-03-01T11:32:23;14.10;30.70
76211;DHT22;65003;49.518;11.280;2023-03-01T11:34:55;14.00;31.20
76211;DHT22;65003;49.518;11.280;2023-03-01T11:37:40;14.00;32.00
76211;DHT22;65003;49.518;11.280;2023-03-01T11:40:13;13.90;31.20
76211;DHT22;65003;49.518;11.280;2023-03-01T11:42:44;13.60;32.10
76211;DHT22;65003;49.518;11.280;2023-03-01T11:45:10;13.30;32.40
76211;DHT22;65003;49.518;11.280;2023-03-01T11:47:42;12.70;33.40
76211;DHT22;65003;49.518;11.280;2023-03-01T11:50:15;12.60;34.00
76211;DHT22;65003;49.518;11.280;2023-03-01T11:52:48;12.80;34.20
76211;DHT22;65003;49.518;11.280;2023-03-01T11:55:19;13.00;34.00
76211;DHT22;65003;49.518;11.280;2023-03-01T11:59:00;12.50;34.10
76211;DHT22;65003;49.518;11.280;2023-03-01T12:01:27;12.10;34.90
76211;DHT22;65003;49.518;11.280;2023-03-01T12:06:33;12.00;36.00
76211;DHT22;65003;49.518;11.280;2023-03-01T12:09:11;12.00;36.00
76211;DHT22;65003;49.518;11.280;2023-03-01T12:11:46;12.20;36.00
76211;DHT22;65003;49.518;11.280;2023-03-01T12:17:15;12.10;36.10
76211;DHT22;65003;49.518;11.280;2023-03-01T12:19:51;11.90;37.00
76211;DHT22;65003;49.518;11.280;2023-03-01T12:22:25;11.90;36.80
76211;DHT22;65003;49.518;11.280;2023-03-01T12:24:57;11.90;37.00
76211;DHT22;65003;49.518;11.280;2023-03-01T12:30:16;11.80;37.80
76211;DHT22;65003;49.518;11.280;2023-03-01T12:32:42;11.90;37.60
76211;DHT22;65003;49.518;11.280;2023-03-01T12:35:28;11.90;38.10
76211;DHT22;65003;49.518;11.280;2023-03-01T12:43:27;12.00;37.90
76211;DHT22;65003;49.518;11.280;2023-03-01T12:45:59;12.00;38.00
76211;DHT22;65003;49.518;11.280;2023-03-01T12:48:30;12.20;37.80
76211;DHT22;65003;49.518;11.280;2023-03-01T12:50:54;12.10;38.20
76211;DHT22;65003;49.518;11.280;2023-03-01T12:53:26;12.10;38.00
76211;DHT22;65003;49.518;11.280;2023-03-01T12:55:53;11.90;38.40
76211;DHT22;65003;49.518;11.280;2023-03-01T12:58:25;11.90;38.70
76211;DHT22;65003;49.518;11.280;2023-03-01T13:09:02;12.00;39.70
76211;DHT22;65003;49.518;11.280;2023-03-01T13:11:25;13.40;39.80
76211;DHT22;65003;49.518;11.280;2023-03-01T13:13:52;12.20;38.90
76211;DHT22;65003;49.518;11.280;2023-03-01T13:16:21;12.00;39.10
76211;DHT22;65003;49.518;11.280;2023-03-01T13:18:46;12.00;38.90
76211;DHT22;65003;49.518;11.280;2023-03-01T13:21:12;12.00;39.40
76211;DHT22;65003;49.518;11.280;2023-03-01T13:23:39;12.00;39.60
76211;DHT22;65003;49.518;11.280;2023-03-01T13:26:14;11.90;39.90
76211;DHT22;65003;49.518;11.280;2023-03-01T13:28:50;12.00;39.90
76211;DHT22;65003;49.518;11.280;2023-03-01T13:31:55;11.90;39.10
76211;DHT22;65003;49.518;11.280;2023-03-01T13:34:39;12.00;39.50
76211;DHT22;65003;49.518;11.280;2023-03-01T13:36:46;12.00;39.70
76211;DHT22;65003;49.518;11.280;2023-03-01T13:39:30;11.90;39.50
76211;DHT22;65003;49.518;11.280;2023-03-01T13:41:58;11.90;40.00
76211;DHT22;65003;49.518;11.280;2023-03-01T13:44:39;11.90;39.80
76211;DHT22;65003;49.518;11.280;2023-03-01T13:47:20;11.80;39.90
76211;DHT22;65003;49.518;11.280;2023-03-01T13:49:56;11.80;40.40
76211;DHT22;65003;49.518;11.280;2023-03-01T13:52:44;11.90;40.90
76211;DHT22;65003;49.518;11.280;2023-03-01T13:55:18;11.80;40.20
76211;DHT22;65003;49.518;11.280;2023-03-01T13:57:46;11.70;40.80
76211;DHT22;65003;49.518;11.280;2023-03-01T14:00:38;11.50;40.60
76211;DHT22;65003;49.518;11.280;2023-03-01T14:03:09;11.40;41.60
76211;DHT22;65003;49.518;11.280;2023-03-01T14:05:35;11.40;41.70
76211;DHT22;65003;49.518;11.280;2023-03-01T14:08:03;10.90;42.10
76211;DHT22;65003;49.518;11.280;2023-03-01T14:10:35;10.60;43.10
76211;DHT22;65003;49.518;11.280;2023-03-01T14:13:03;10.40;44.00
76211;DHT22;65003;49.518;11.280;2023-03-01T14:15:29;10.40;43.70
76211;DHT22;65003;49.518;11.280;2023-03-01T14:18:12;10.40;43.90
76211;DHT22;65003;49.518;11.280;2023-03-01T14:20:38;10.50;43.80
76211;DHT22;65003;49.518;11.280;2023-03-01T14:23:09;10.50;43.70
76211;DHT22;65003;49.518;11.280;2023-03-01T14:25:32;10.50;43.90
76211;DHT22;65003;49.518;11.280;2023-03-01T14:28:14;10.50;43.90
76211;DHT22;65003;49.518;11.280;2023-03-01T14:30:45;10.40;44.20
76211;DHT22;65003;49.518;11.280;2023-03-01T14:33:22;10.30;44.50
76211;DHT22;65003;49.518;11.280;2023-03-01T14:35:53;10.40;44.40
76211;DHT22;65003;49.518;11.280;2023-03-01T14:38:27;10.30;44.30
76211;DHT22;65003;49.518;11.280;2023-03-01T14:40:51;10.30;44.60
76211;DHT22;65003;49.518;11.280;2023-03-01T14:43:16;10.20;44.50
76211;DHT22;65003;49.518;11.280;2023-03-01T14:45:46;10.20;44.60
76211;DHT22;65003;49.518;11.280;2023-03-01T14:48:10;10.10;45.10
76211;DHT22;65003;49.518;11.280;2023-03-01T14:50:40;10.00;45.30
76211;DHT22;65003;49.518;11.280;2023-03-01T14:53:03;10.00;45.70
76211;DHT22;65003;49.518;11.280;2023-03-01T14:55:30;9.80;45.70
76211;DHT22;65003;49.518;11.280;2023-03-01T14:57:56;9.70;46.10
76211;DHT22;65003;49.518;11.280;2023-03-01T15:00:28;9.60;46.40
76211;DHT22;65003;49.518;11.280;2023-03-01T15:02:56;9.60;46.80
76211;DHT22;65003;49.518;11.280;2023-03-01T15:05:25;9.70;46.80
76211;DHT22;65003;49.518;11.280;2023-03-01T15:07:49;9.70;46.60
76211;DHT22;65003;49.518;11.280;2023-03-01T15:12:45;9.70;47.00
76211;DHT22;65003;49.518;11.280;2023-03-01T15:15:21;9.70;46.90
76211;DHT22;65003;49.518;11.280;2023-03-01T15:17:50;9.50;47.30
76211;DHT22;65003;49.518;11.280;2023-03-01T15:20:17;9.30;47.70
76211;DHT22;65003;49.518;11.280;2023-03-01T15:22:44;9.10;48.10
76211;DHT22;65003;49.518;11.280;2023-03-01T15:25:15;9.00;48.10
76211;DHT22;65003;49.518;11.280;2023-03-01T15:27:43;9.00;48.60
76211;DHT22;65003;49.518;11.280;2023-03-01T15:30:13;9.00;48.60
76211;DHT22;65003;49.518;11.280;2023-03-01T15:32:35;9.00;48.70
76211;DHT22;65003;49.518;11.280;2023-03-01T15:35:31;8.90;48.90
76211;DHT22;65003;49.518;11.280;2023-03-01T15:37:38;8.90;49.00
76211;DHT22;65003;49.518;11.280;2023-03-01T15:40:02;8.80;49.20
76211;DHT22;65003;49.518;11.280;2023-03-01T15:42:36;8.80;49.40
76211;DHT22;65003;49.518;11.280;2023-03-01T15:45:09;8.70;49.60
76211;DHT22;65003;49.518;11.280;2023-03-01T15:47:34;8.70;49.70
76211;DHT22;65003;49.518;11.280;2023-03-01T15:50:01;8.50;49.90
76211;DHT22;65003;49.518;11.280;2023-03-01T15:52:29;8.30;50.10
76211;DHT22;65003;49.518;11.280;2023-03-01T15:54:59;8.20;50.70
76211;DHT22;65003;49.518;11.280;2023-03-01T15:57:24;8.10;50.80
76211;DHT22;65003;49.518;11.280;2023-03-01T15:59:51;8.10;50.80
76211;DHT22;65003;49.518;11.280;2023-03-01T16:02:18;8.00;51.10